createdAt,value
2024-03-22T00:00:33.679Z,11.00
2024-03-22T00:01:33.659Z,9.20
2024-03-22T00:02:33.678Z,9.10
2024-03-22T00:03:33.657Z,9.50
2024-03-22T00:04:33.628Z,8.10
2024-03-22T00:05:33.629Z,10.00
2024-03-22T00:06:33.609Z,11.70
2024-03-22T00:07:33.624Z,9.30
2024-03-22T00:08:33.595Z,9.70
2024-03-22T00:09:33.590Z,9.50
2024-03-22T00:10:33.583Z,11.20
2024-03-22T00:11:33.617Z,8.40
2024-03-22T00:12:33.599Z,10.40
2024-03-22T00:13:33.579Z,10.20
2024-03-22T00:14:35.657Z,11.20
2024-03-22T00:15:33.542Z,9.20
2024-03-22T00:16:33.563Z,8.50
2024-03-22T00:17:33.553Z,8.80
2024-03-22T00:18:33.537Z,9.50
2024-03-22T00:19:33.515Z,11.10
2024-03-22T00:20:35.191Z,11.40
2024-03-22T00:21:33.538Z,9.20
2024-03-22T00:22:33.495Z,9.50
2024-03-22T00:23:33.498Z,9.00
2024-03-22T00:24:33.476Z,10.10
2024-03-22T00:25:33.496Z,9.50
2024-03-22T00:26:33.489Z,9.80
2024-03-22T00:27:33.457Z,7.30
2024-03-22T00:28:33.450Z,9.70
2024-03-22T00:29:33.445Z,9.70
2024-03-22T00:30:33.484Z,9.00
2024-03-22T00:31:33.426Z,8.50
2024-03-22T00:32:33.448Z,7.20
2024-03-22T00:33:33.436Z,6.80
2024-03-22T00:34:33.397Z,8.30
2024-03-22T00:35:33.440Z,8.20
2024-03-22T00:36:33.379Z,9.30
2024-03-22T00:37:33.372Z,10.70
2024-03-22T00:38:33.384Z,9.60
2024-03-22T00:39:33.356Z,9.70
2024-03-22T00:40:33.401Z,10.40
2024-03-22T00:41:33.365Z,10.60
2024-03-22T00:42:33.347Z,11.10
2024-03-22T00:43:33.329Z,7.40
2024-03-22T00:44:33.404Z,10.00
2024-03-22T00:45:33.338Z,8.70
2024-03-22T00:46:33.416Z,9.30
2024-03-22T00:47:33.301Z,10.80
2024-03-22T00:48:33.288Z,10.60
2024-03-22T00:49:33.308Z,9.10
2024-03-22T00:50:33.299Z,10.00
2024-03-22T00:51:33.277Z,10.80
2024-03-22T00:52:33.275Z,8.80
2024-03-22T00:53:33.285Z,10.50
2024-03-22T00:54:33.278Z,11.20
2024-03-22T00:55:33.243Z,8.30
2024-03-22T00:56:33.238Z,10.70
2024-03-22T00:57:33.226Z,10.10
2024-03-22T00:58:33.226Z,10.80
2024-03-22T00:59:33.229Z,9.20
2024-03-22T01:00:33.274Z,9.20
2024-03-22T01:01:33.187Z,9.70
2024-03-22T01:02:33.188Z,9.40
2024-03-22T01:03:33.221Z,9.50
2024-03-22T01:04:33.169Z,10.70
2024-03-22T01:05:33.167Z,8.40
2024-03-22T01:06:33.147Z,11.00
2024-03-22T01:07:33.146Z,13.60
2024-03-22T01:08:33.182Z,11.00
2024-03-22T01:09:33.128Z,9.10
2024-03-22T01:10:33.189Z,10.40
2024-03-22T01:11:33.144Z,9.10
2024-03-22T01:12:33.127Z,12.20
2024-03-22T01:13:33.126Z,8.60
2024-03-22T01:14:33.094Z,8.80
2024-03-22T01:15:33.083Z,11.30
2024-03-22T01:16:33.088Z,9.70
2024-03-22T01:17:33.107Z,11.30
2024-03-22T01:18:33.060Z,9.40
2024-03-22T01:19:33.051Z,13.80
2024-03-22T01:20:33.052Z,10.00
2024-03-22T01:21:33.045Z,11.10
2024-03-22T01:22:33.064Z,10.50
2024-03-22T01:23:33.031Z,9.40
2024-03-22T01:24:33.004Z,10.70
2024-03-22T01:25:33.002Z,10.90
2024-03-22T01:26:33.011Z,10.70
2024-03-22T01:27:33.019Z,11.20
2024-03-22T01:28:32.981Z,8.70
2024-03-22T01:29:32.968Z,10.30
2024-03-22T01:30:32.971Z,9.10
2024-03-22T01:31:32.985Z,11.30
2024-03-22T01:32:32.990Z,10.20
2024-03-22T01:33:32.954Z,11.50
2024-03-22T01:34:32.945Z,11.50
2024-03-22T01:35:32.927Z,14.40
2024-03-22T01:36:32.944Z,12.60
2024-03-22T01:37:32.918Z,11.90
2024-03-22T01:38:32.906Z,11.60
2024-03-22T01:39:32.897Z,12.20
2024-03-22T01:40:32.893Z,11.70
2024-03-22T01:41:32.908Z,10.20
2024-03-22T01:42:32.871Z,12.00
2024-03-22T01:43:32.877Z,10.40
2024-03-22T01:44:32.878Z,13.00
2024-03-22T01:45:32.868Z,9.70
2024-03-22T01:46:32.862Z,10.90
2024-03-22T01:47:32.847Z,11.20
2024-03-22T01:48:32.822Z,11.00
2024-03-22T01:49:32.815Z,13.30
2024-03-22T01:50:32.881Z,11.60
2024-03-22T01:51:32.821Z,14.30
2024-03-22T01:52:32.794Z,12.20
2024-03-22T01:53:32.834Z,13.60
2024-03-22T01:54:32.795Z,19.30
2024-03-22T01:55:32.790Z,13.70
2024-03-22T01:56:32.780Z,10.70
2024-03-22T01:57:32.745Z,13.30
2024-03-22T01:58:32.739Z,11.90
2024-03-22T01:59:32.778Z,10.50
2024-03-22T02:00:32.736Z,12.30
2024-03-22T02:01:32.718Z,14.90
2024-03-22T02:02:32.711Z,12.00
2024-03-22T02:03:32.703Z,10.30
2024-03-22T02:04:32.722Z,13.60
2024-03-22T02:05:32.693Z,11.80
2024-03-22T02:06:32.686Z,15.10
2024-03-22T02:07:32.676Z,13.30
2024-03-22T02:08:32.700Z,13.60
2024-03-22T02:09:32.673Z,11.20
2024-03-22T02:10:32.664Z,11.20
2024-03-22T02:11:32.646Z,11.00
2024-03-22T02:12:32.658Z,14.10
2024-03-22T02:13:32.667Z,12.10
2024-03-22T02:14:32.636Z,10.00
2024-03-22T02:15:32.623Z,13.00
2024-03-22T02:16:32.629Z,13.70
2024-03-22T02:17:32.679Z,10.90
2024-03-22T02:18:32.634Z,13.80
2024-03-22T02:19:32.580Z,14.70
2024-03-22T02:20:32.569Z,11.90
2024-03-22T02:21:32.565Z,15.10
2024-03-22T02:22:32.558Z,14.00
2024-03-22T02:23:32.599Z,11.10
2024-03-22T02:24:33.541Z,13.40
2024-03-22T02:25:32.545Z,11.40
2024-03-22T02:26:32.552Z,12.10
2024-03-22T02:27:32.555Z,13.00
2024-03-22T02:28:32.536Z,10.00
2024-03-22T02:29:32.522Z,11.90
2024-03-22T02:30:32.504Z,12.60
2024-03-22T02:31:32.491Z,14.90
2024-03-22T02:32:32.506Z,13.10
2024-03-22T02:33:32.474Z,12.00
2024-03-22T02:34:35.940Z,12.50
2024-03-22T02:35:34.475Z,12.40
2024-03-22T02:36:32.456Z,13.20
2024-03-22T02:37:32.472Z,12.80
2024-03-22T02:38:32.431Z,11.40
2024-03-22T02:39:32.447Z,12.60
2024-03-22T02:40:32.423Z,13.70
2024-03-22T02:41:32.432Z,13.70
2024-03-22T02:42:32.440Z,17.90
2024-03-22T02:43:32.408Z,11.60
2024-03-22T02:44:32.393Z,14.00
2024-03-22T02:45:32.384Z,11.00
2024-03-22T02:46:32.404Z,12.40
2024-03-22T02:47:32.367Z,13.40
2024-03-22T02:48:32.355Z,12.20
2024-03-22T02:49:32.361Z,10.90
2024-03-22T02:50:32.343Z,12.20
2024-03-22T02:51:32.361Z,14.10
2024-03-22T02:52:32.318Z,16.10
2024-03-22T02:53:32.312Z,16.60
2024-03-22T02:54:32.312Z,17.50
2024-03-22T02:55:32.319Z,18.00
2024-03-22T02:56:32.335Z,12.50
2024-03-22T02:57:32.290Z,13.60
2024-03-22T02:58:32.272Z,11.70
2024-03-22T02:59:32.276Z,12.80
2024-03-22T03:00:32.293Z,10.30
2024-03-22T03:01:32.262Z,9.70
2024-03-22T03:02:32.261Z,9.50
2024-03-22T03:03:32.235Z,11.50
2024-03-22T03:04:32.230Z,11.80
2024-03-22T03:05:32.249Z,12.50
2024-03-22T03:06:32.223Z,10.50
2024-03-22T03:07:32.208Z,12.60
2024-03-22T03:08:32.206Z,14.20
2024-03-22T03:09:32.214Z,12.40
2024-03-22T03:10:32.206Z,14.30
2024-03-22T03:11:32.178Z,13.20
2024-03-22T03:12:32.179Z,11.80
2024-03-22T03:13:32.161Z,11.00
2024-03-22T03:14:32.188Z,13.80
2024-03-22T03:15:32.150Z,14.10
2024-03-22T03:16:32.146Z,14.50
2024-03-22T03:17:32.125Z,19.60
2024-03-22T03:18:32.120Z,22.20
2024-03-22T03:19:32.140Z,18.20
2024-03-22T03:20:32.102Z,23.80
2024-03-22T03:21:32.099Z,19.50
2024-03-22T03:22:32.080Z,20.90
2024-03-22T03:23:32.120Z,19.00
2024-03-22T03:24:32.096Z,20.50
2024-03-22T03:25:32.071Z,18.30
2024-03-22T03:26:32.070Z,17.40
2024-03-22T03:27:32.046Z,18.20
2024-03-22T03:28:32.073Z,17.40
2024-03-22T03:29:32.024Z,16.30
2024-03-22T03:30:33.015Z,21.80
2024-03-22T03:31:32.022Z,15.70
2024-03-22T03:32:32.002Z,14.90
2024-03-22T03:33:32.027Z,14.70
2024-03-22T03:34:31.995Z,14.60
2024-03-22T03:35:31.990Z,13.40
2024-03-22T03:36:31.972Z,15.70
2024-03-22T03:37:32.962Z,11.50
2024-03-22T03:38:31.990Z,11.80
2024-03-22T03:39:31.957Z,12.10
2024-03-22T03:40:31.938Z,12.40
2024-03-22T03:41:31.933Z,12.10
2024-03-22T03:42:31.959Z,10.10
2024-03-22T03:43:31.949Z,11.60
2024-03-22T03:44:31.905Z,11.10
2024-03-22T03:45:31.906Z,12.70
2024-03-22T03:46:31.892Z,14.20
2024-03-22T03:47:31.915Z,15.50
2024-03-22T03:48:31.892Z,21.90
2024-03-22T03:49:31.887Z,15.10
2024-03-22T03:50:31.878Z,19.40
2024-03-22T03:51:31.846Z,17.60
2024-03-22T03:52:31.864Z,18.80
2024-03-22T03:53:31.828Z,16.20
2024-03-22T03:54:31.829Z,13.10
2024-03-22T03:55:31.821Z,13.90
2024-03-22T03:56:31.837Z,15.40
2024-03-22T03:57:31.831Z,14.40
2024-03-22T03:58:31.794Z,17.90
2024-03-22T03:59:31.788Z,17.90
2024-03-22T04:00:31.774Z,16.60
2024-03-22T04:01:31.806Z,15.60
2024-03-22T04:02:31.762Z,17.60
2024-03-22T04:03:31.758Z,20.50
2024-03-22T04:04:31.741Z,19.80
2024-03-22T04:05:31.739Z,17.00
2024-03-22T04:06:31.754Z,19.10
2024-03-22T04:07:31.725Z,22.00
2024-03-22T04:08:31.718Z,17.00
2024-03-22T04:09:31.737Z,20.00
2024-03-22T04:10:31.707Z,20.40
2024-03-22T04:11:31.713Z,20.20
2024-03-22T04:12:31.690Z,20.20
2024-03-22T04:13:31.693Z,18.20
2024-03-22T04:14:31.668Z,19.50
2024-03-22T04:15:31.692Z,19.20
2024-03-22T04:16:31.679Z,21.50
2024-03-22T04:17:31.649Z,15.80
2024-03-22T04:18:31.633Z,17.60
2024-03-22T04:19:31.656Z,20.40
2024-03-22T04:20:31.643Z,18.00
2024-03-22T04:21:31.616Z,17.00
2024-03-22T04:22:31.625Z,20.70
2024-03-22T04:23:31.600Z,19.60
2024-03-22T04:24:31.598Z,17.90
2024-03-22T04:25:31.612Z,17.60
2024-03-22T04:26:31.576Z,17.10
2024-03-22T04:27:31.575Z,16.40
2024-03-22T04:28:31.569Z,17.90
2024-03-22T04:29:31.592Z,16.20
2024-03-22T04:30:31.606Z,17.70
2024-03-22T04:31:31.544Z,19.70
2024-03-22T04:32:31.534Z,17.00
2024-03-22T04:33:31.533Z,15.90
2024-03-22T04:34:31.546Z,18.90
2024-03-22T04:35:31.504Z,14.80
2024-03-22T04:36:31.501Z,18.10
2024-03-22T04:37:31.490Z,17.30
2024-03-22T04:38:31.527Z,16.50
2024-03-22T04:39:31.520Z,17.90
2024-03-22T04:40:31.470Z,18.60
2024-03-22T04:41:31.455Z,19.50
2024-03-22T04:42:31.455Z,17.00
2024-03-22T04:43:31.507Z,17.10
2024-03-22T04:44:31.437Z,20.60
2024-03-22T04:45:31.424Z,19.40
2024-03-22T04:46:31.419Z,16.60
2024-03-22T04:47:31.430Z,16.90
2024-03-22T04:48:31.438Z,16.90
2024-03-22T04:49:31.406Z,19.80
2024-03-22T04:50:31.389Z,20.80
2024-03-22T04:51:31.378Z,18.00
2024-03-22T04:52:31.396Z,21.20
2024-03-22T04:53:31.395Z,19.70
2024-03-22T04:54:31.365Z,19.10
2024-03-22T04:55:31.358Z,19.70
2024-03-22T04:56:31.348Z,20.40
2024-03-22T04:57:31.362Z,21.30
2024-03-22T04:58:31.328Z,19.00
2024-03-22T04:59:31.330Z,20.80
2024-03-22T05:00:31.320Z,25.00
2024-03-22T05:01:31.307Z,19.90
2024-03-22T05:02:31.385Z,20.50
2024-03-22T05:03:31.296Z,19.30
2024-03-22T05:04:31.287Z,18.20
2024-03-22T05:05:31.283Z,20.70
2024-03-22T05:06:31.299Z,22.10
2024-03-22T05:07:31.288Z,20.70
2024-03-22T05:08:31.253Z,18.10
2024-03-22T05:09:31.261Z,21.10
2024-03-22T05:10:31.254Z,22.10
2024-03-22T05:11:31.258Z,21.10
2024-03-22T05:12:31.247Z,19.40
2024-03-22T05:13:31.227Z,19.20
2024-03-22T05:14:31.218Z,23.10
2024-03-22T05:15:31.209Z,21.00
2024-03-22T05:16:31.214Z,18.10
2024-03-22T05:17:31.199Z,18.90
2024-03-22T05:18:31.180Z,19.80
2024-03-22T05:19:31.183Z,20.50
2024-03-22T05:20:31.168Z,19.50
2024-03-22T05:21:31.186Z,17.60
2024-03-22T05:22:31.152Z,17.40
2024-03-22T05:23:31.152Z,19.00
2024-03-22T05:24:31.140Z,21.50
2024-03-22T05:25:31.166Z,21.10
2024-03-22T05:26:31.143Z,22.10
2024-03-22T05:27:31.138Z,19.10
2024-03-22T05:28:31.108Z,20.30
2024-03-22T05:29:31.121Z,18.00
2024-03-22T05:30:31.141Z,17.90
2024-03-22T05:31:31.087Z,19.10
2024-03-22T05:32:31.072Z,20.10
2024-03-22T05:33:31.089Z,20.40
2024-03-22T05:34:31.051Z,18.90
2024-03-22T05:35:32.105Z,20.20
2024-03-22T05:36:31.047Z,21.40
2024-03-22T05:37:31.073Z,23.30
2024-03-22T05:38:31.038Z,20.20
2024-03-22T05:39:31.054Z,18.80
2024-03-22T05:40:31.090Z,22.80
2024-03-22T05:41:31.014Z,18.30
2024-03-22T05:42:31.687Z,17.90
2024-03-22T05:43:31.995Z,19.80
2024-03-22T05:44:31.018Z,21.90
2024-03-22T05:45:30.996Z,23.40
2024-03-22T05:46:30.980Z,19.00
2024-03-22T05:47:37.739Z,20.70
2024-03-22T05:48:31.960Z,20.50
2024-03-22T05:49:30.971Z,22.90
2024-03-22T05:50:30.948Z,23.40
2024-03-22T05:51:30.936Z,25.20
2024-03-22T05:52:30.940Z,22.60
2024-03-22T05:53:30.947Z,21.50
2024-03-22T05:54:30.958Z,19.00
2024-03-22T05:55:30.905Z,22.20
2024-03-22T05:56:30.892Z,22.20
2024-03-22T05:57:30.894Z,20.50
2024-03-22T05:58:30.906Z,22.30
2024-03-22T05:59:30.901Z,22.50
2024-03-22T06:00:30.878Z,20.60
2024-03-22T06:01:30.864Z,22.60
2024-03-22T06:02:30.851Z,21.90
2024-03-22T06:03:30.873Z,23.10
2024-03-22T06:04:30.836Z,23.40
2024-03-22T06:05:30.828Z,24.90
2024-03-22T06:06:30.824Z,21.70
2024-03-22T06:07:30.839Z,22.70
2024-03-22T06:08:30.840Z,26.40
2024-03-22T06:09:30.826Z,22.60
2024-03-22T06:10:30.800Z,22.20
2024-03-22T06:11:30.780Z,26.60
2024-03-22T06:12:30.874Z,23.90
2024-03-22T06:13:30.775Z,25.10
2024-03-22T06:14:30.754Z,24.40
2024-03-22T06:15:30.754Z,23.50
2024-03-22T06:16:30.814Z,25.30
2024-03-22T06:17:30.777Z,25.90
2024-03-22T06:18:30.731Z,26.50
2024-03-22T06:19:30.724Z,24.30
2024-03-22T06:20:30.726Z,24.90
2024-03-22T06:21:30.727Z,24.40
2024-03-22T06:22:30.825Z,26.00
2024-03-22T06:23:30.692Z,28.40
2024-03-22T06:24:30.680Z,28.00
2024-03-22T06:25:30.670Z,23.00
2024-03-22T06:26:37.919Z,23.80
2024-03-22T06:27:32.662Z,20.40
2024-03-22T06:28:30.636Z,24.10
2024-03-22T06:29:30.656Z,22.30
2024-03-22T06:30:30.655Z,23.90
2024-03-22T06:31:30.663Z,27.10
2024-03-22T06:32:30.653Z,29.40
2024-03-22T06:33:30.613Z,25.90
2024-03-22T06:34:30.613Z,27.60
2024-03-22T06:35:31.878Z,27.00
2024-03-22T06:36:30.611Z,26.30
2024-03-22T06:37:30.621Z,28.70
2024-03-22T06:38:30.579Z,30.50
2024-03-22T06:39:30.574Z,27.90
2024-03-22T06:40:30.578Z,30.40
2024-03-22T06:41:30.571Z,26.20
2024-03-22T06:42:30.559Z,32.50
2024-03-22T06:43:30.558Z,29.20
2024-03-22T06:44:30.542Z,30.60
2024-03-22T06:45:30.564Z,31.10
2024-03-22T06:46:30.524Z,31.30
2024-03-22T06:47:30.505Z,29.50
2024-03-22T06:48:30.513Z,32.40
2024-03-22T06:49:30.491Z,31.50
2024-03-22T06:50:30.517Z,34.70
2024-03-22T06:51:30.476Z,29.10
2024-03-22T06:52:30.489Z,31.00
2024-03-22T06:53:30.468Z,30.70
2024-03-22T06:54:30.448Z,31.20
2024-03-22T06:55:30.474Z,30.40
2024-03-22T06:56:30.439Z,33.80
2024-03-22T06:57:30.473Z,33.40
2024-03-22T06:58:30.427Z,28.90
2024-03-22T06:59:30.426Z,29.90
2024-03-22T07:00:30.437Z,28.60
2024-03-22T07:01:30.421Z,32.10
2024-03-22T07:02:30.423Z,31.00
2024-03-22T07:03:30.389Z,30.60
2024-03-22T07:04:30.406Z,32.00
2024-03-22T07:05:30.406Z,30.80
2024-03-22T07:06:30.383Z,33.00
2024-03-22T07:07:30.362Z,30.90
2024-03-22T07:08:30.345Z,32.10
2024-03-22T07:09:30.398Z,31.00
2024-03-22T07:10:30.329Z,31.70
2024-03-22T07:11:30.330Z,29.30
2024-03-22T07:12:30.321Z,33.00
2024-03-22T07:13:30.317Z,33.50
2024-03-22T07:14:31.950Z,34.20
2024-03-22T07:15:30.313Z,32.30
2024-03-22T07:16:30.274Z,32.20
2024-03-22T07:17:31.277Z,29.00
2024-03-22T07:18:30.293Z,33.60
2024-03-22T07:19:30.282Z,32.70
2024-03-22T07:20:30.270Z,30.00
2024-03-22T07:21:30.240Z,34.60
2024-03-22T07:22:30.228Z,32.50
2024-03-22T07:23:30.251Z,34.40
2024-03-22T07:24:30.228Z,34.20
2024-03-22T07:25:30.204Z,33.20
2024-03-22T07:26:31.137Z,33.30
2024-03-22T07:27:31.206Z,33.40
2024-03-22T07:28:30.226Z,34.40
2024-03-22T07:29:30.200Z,31.80
2024-03-22T07:30:30.193Z,32.80
2024-03-22T07:31:30.164Z,30.10
2024-03-22T07:32:30.172Z,30.90
2024-03-22T07:33:30.179Z,29.30
2024-03-22T07:34:30.152Z,31.60
2024-03-22T07:35:30.138Z,30.80
2024-03-22T07:36:30.126Z,32.50
2024-03-22T07:37:30.136Z,29.50
2024-03-22T07:38:30.146Z,29.20
2024-03-22T07:39:30.098Z,28.20
2024-03-22T07:40:30.092Z,32.20
2024-03-22T07:41:30.183Z,32.60
2024-03-22T07:42:30.111Z,30.30
2024-03-22T07:43:30.069Z,33.20
2024-03-22T07:44:30.063Z,31.40
2024-03-22T07:45:30.061Z,33.40
2024-03-22T07:46:30.101Z,31.10
2024-03-22T07:47:30.096Z,29.50
2024-03-22T07:48:30.029Z,32.70
2024-03-22T07:49:30.045Z,31.40
2024-03-22T07:50:30.034Z,34.00
2024-03-22T07:51:30.067Z,31.20
2024-03-22T07:52:30.028Z,34.90
2024-03-22T07:53:31.150Z,31.80
2024-03-22T07:54:29.987Z,31.50
2024-03-22T07:55:30.022Z,32.90
2024-03-22T07:56:30.032Z,32.80
2024-03-22T07:57:30.058Z,31.60
2024-03-22T07:58:29.983Z,29.80
2024-03-22T07:59:29.968Z,29.00
2024-03-22T08:00:29.956Z,32.50
2024-03-22T08:01:29.971Z,35.60
2024-03-22T08:02:29.940Z,31.80
2024-03-22T08:03:29.908Z,32.80
2024-03-22T08:04:31.311Z,35.30
2024-03-22T08:05:29.933Z,36.90
2024-03-22T08:06:29.932Z,36.60
2024-03-22T08:07:29.883Z,33.80
2024-03-22T08:08:29.897Z,34.30
2024-03-22T08:09:29.873Z,31.40
2024-03-22T08:10:29.935Z,35.30
2024-03-22T08:11:29.876Z,35.50
2024-03-22T08:12:29.879Z,35.10
2024-03-22T08:13:29.853Z,30.00
2024-03-22T08:14:29.857Z,31.50
2024-03-22T08:15:29.956Z,34.10
2024-03-22T08:16:29.848Z,31.00
2024-03-22T08:17:29.818Z,31.80
2024-03-22T08:18:29.802Z,33.00
2024-03-22T08:19:30.789Z,33.40
2024-03-22T08:20:29.891Z,36.50
2024-03-22T08:21:29.839Z,34.80
2024-03-22T08:22:29.759Z,34.30
2024-03-22T08:23:30.808Z,33.70
2024-03-22T08:24:29.777Z,33.80
2024-03-22T08:25:29.789Z,34.30
2024-03-22T08:26:29.751Z,31.40
2024-03-22T08:27:34.267Z,34.60
2024-03-22T08:28:37.500Z,34.80
2024-03-22T08:29:31.744Z,34.30
2024-03-22T08:30:29.781Z,33.70
2024-03-22T08:31:29.706Z,36.80
2024-03-22T08:32:29.705Z,33.10
2024-03-22T08:33:29.703Z,38.30
2024-03-22T08:34:29.716Z,32.50
2024-03-22T08:35:29.673Z,30.40
2024-03-22T08:36:29.705Z,32.50
2024-03-22T08:37:29.655Z,32.50
2024-03-22T08:38:29.656Z,32.60
2024-03-22T08:39:29.659Z,32.50
2024-03-22T08:40:29.637Z,33.30
2024-03-22T08:41:29.690Z,30.00
2024-03-22T08:42:29.610Z,31.50
2024-03-22T08:43:29.632Z,34.20
2024-03-22T08:44:29.642Z,29.50
2024-03-22T08:45:29.590Z,32.10
2024-03-22T08:46:29.583Z,34.90
2024-03-22T08:47:29.573Z,33.10
2024-03-22T08:48:29.638Z,31.20
2024-03-22T08:49:29.555Z,29.90
2024-03-22T08:50:30.426Z,32.30
2024-03-22T08:51:29.542Z,32.20
2024-03-22T08:52:29.606Z,28.40
2024-03-22T08:53:30.555Z,34.10
2024-03-22T08:54:29.520Z,32.50
2024-03-22T08:55:29.578Z,32.80
2024-03-22T08:56:29.524Z,30.50
2024-03-22T08:57:29.507Z,28.90
2024-03-22T08:58:29.508Z,31.70
2024-03-22T08:59:29.534Z,29.70
2024-03-22T09:00:29.475Z,31.40
2024-03-22T09:01:29.470Z,31.50
2024-03-22T09:02:29.484Z,30.30
2024-03-22T09:03:29.524Z,33.20
2024-03-22T09:04:29.502Z,30.90
2024-03-22T09:05:29.516Z,30.50
2024-03-22T09:06:29.498Z,30.40
2024-03-22T09:07:29.434Z,29.40
2024-03-22T09:08:29.411Z,27.20
2024-03-22T09:09:29.402Z,28.70
2024-03-22T09:10:29.457Z,29.00
2024-03-22T09:11:29.396Z,28.80
2024-03-22T09:12:29.402Z,30.30
2024-03-22T09:13:29.375Z,30.30
2024-03-22T09:14:29.370Z,29.60
2024-03-22T09:15:29.359Z,27.90
2024-03-22T09:16:29.387Z,30.00
2024-03-22T09:17:29.370Z,28.00
2024-03-22T09:18:29.332Z,25.50
2024-03-22T09:19:29.314Z,28.30
2024-03-22T09:20:29.330Z,30.20
2024-03-22T09:21:29.334Z,28.40
2024-03-22T09:22:29.329Z,27.50
2024-03-22T09:23:29.313Z,27.50
2024-03-22T09:24:29.372Z,30.00
2024-03-22T09:25:29.310Z,27.90
2024-03-22T09:26:29.294Z,26.10
2024-03-22T09:27:29.266Z,28.20
2024-03-22T09:28:29.270Z,25.50
2024-03-22T09:29:29.239Z,24.60
2024-03-22T09:30:31.908Z,23.50
2024-03-22T09:31:30.259Z,23.60
2024-03-22T09:32:29.298Z,24.00
2024-03-22T09:33:29.243Z,24.90
2024-03-22T09:34:29.314Z,23.90
2024-03-22T09:35:29.216Z,23.50
2024-03-22T09:36:30.336Z,26.70
2024-03-22T09:37:29.176Z,23.60
2024-03-22T09:38:29.240Z,21.50
2024-03-22T09:39:29.161Z,23.80
2024-03-22T09:40:29.177Z,23.00
2024-03-22T09:41:29.168Z,26.00
2024-03-22T09:42:29.146Z,26.00
2024-03-22T09:43:29.138Z,23.70
2024-03-22T09:44:29.157Z,21.90
2024-03-22T09:45:29.140Z,19.60
2024-03-22T09:46:29.111Z,21.80
2024-03-22T09:47:29.123Z,17.50
2024-03-22T09:48:29.097Z,19.50
2024-03-22T09:49:29.116Z,20.90
2024-03-22T09:50:29.119Z,18.40
2024-03-22T09:51:29.071Z,17.20
2024-03-22T09:52:29.064Z,19.50
2024-03-22T09:53:29.050Z,18.00
2024-03-22T09:54:29.068Z,18.40
2024-03-22T09:55:29.128Z,15.30
2024-03-22T09:56:30.132Z,16.40
2024-03-22T09:57:29.030Z,17.60
2024-03-22T09:58:29.018Z,17.70
2024-03-22T09:59:29.029Z,19.70
2024-03-22T10:00:29.003Z,16.00
2024-03-22T10:01:28.992Z,14.50
2024-03-22T10:02:28.989Z,16.30
2024-03-22T10:03:29.012Z,15.00
2024-03-22T10:04:28.994Z,20.30
2024-03-22T10:05:28.959Z,17.60
2024-03-22T10:06:28.966Z,15.30
2024-03-22T10:07:28.952Z,18.00
2024-03-22T10:08:28.964Z,17.00
2024-03-22T10:09:28.959Z,15.80
2024-03-22T10:10:29.219Z,17.80
2024-03-22T10:11:28.925Z,19.30
2024-03-22T10:12:28.912Z,14.90
2024-03-22T10:13:28.955Z,15.30
2024-03-22T10:14:32.970Z,14.80
2024-03-22T10:15:30.886Z,17.70
2024-03-22T10:16:28.898Z,19.40
2024-03-22T10:17:28.912Z,16.30
2024-03-22T10:18:28.885Z,18.00
2024-03-22T10:19:28.847Z,15.50
2024-03-22T10:20:28.842Z,15.20
2024-03-22T10:21:28.839Z,16.90
2024-03-22T10:22:29.865Z,14.70
2024-03-22T10:23:30.438Z,16.00
2024-03-22T10:24:28.839Z,16.50
2024-03-22T10:25:28.812Z,17.90
2024-03-22T10:26:28.803Z,15.00
2024-03-22T10:27:28.816Z,16.60
2024-03-22T10:28:28.785Z,14.70
2024-03-22T10:29:29.783Z,13.90
2024-03-22T10:30:28.821Z,13.30
2024-03-22T10:31:28.844Z,15.20
2024-03-22T10:32:28.790Z,15.30
2024-03-22T10:33:28.748Z,14.90
2024-03-22T10:34:28.730Z,15.10
2024-03-22T10:35:28.777Z,12.90
2024-03-22T10:36:28.747Z,14.50
2024-03-22T10:37:28.775Z,14.30
2024-03-22T10:38:28.752Z,14.10
2024-03-22T10:39:28.791Z,14.30
2024-03-22T10:40:28.726Z,15.60
2024-03-22T10:41:28.885Z,13.30
2024-03-22T10:42:28.697Z,17.80
2024-03-22T10:43:28.690Z,16.20
2024-03-22T10:44:28.657Z,14.00
2024-03-22T10:45:28.658Z,13.30
2024-03-22T10:46:28.927Z,13.10
2024-03-22T10:47:28.635Z,13.90
2024-03-22T10:48:28.648Z,17.00
2024-03-22T10:49:28.624Z,14.10
2024-03-22T10:50:28.660Z,13.90
2024-03-22T10:51:28.954Z,13.20
2024-03-22T10:52:28.598Z,21.40
2024-03-22T10:53:28.706Z,16.40
2024-03-22T10:54:28.617Z,16.10
2024-03-22T10:55:28.597Z,15.70
2024-03-22T10:56:28.643Z,12.90
2024-03-22T10:57:28.595Z,15.00
2024-03-22T10:58:28.605Z,14.00
2024-03-22T10:59:28.537Z,13.40
2024-03-22T11:00:28.560Z,16.50
2024-03-22T11:01:28.532Z,16.20
2024-03-22T11:02:28.523Z,14.10
2024-03-22T11:03:28.520Z,16.80
2024-03-22T11:04:28.525Z,16.80
2024-03-22T11:05:28.524Z,15.50
2024-03-22T11:06:28.509Z,14.50
2024-03-22T11:07:28.476Z,12.60
2024-03-22T11:08:28.475Z,14.30
2024-03-22T11:09:28.457Z,12.30
2024-03-22T11:10:28.565Z,14.70
2024-03-22T11:11:28.452Z,12.50
2024-03-22T11:12:28.445Z,14.00
2024-03-22T11:13:28.429Z,12.80
2024-03-22T11:14:28.468Z,12.60
2024-03-22T11:15:28.448Z,14.00
2024-03-22T11:16:28.426Z,11.70
2024-03-22T11:17:28.408Z,13.60
2024-03-22T11:18:28.395Z,15.50
2024-03-22T11:19:28.412Z,12.10
2024-03-22T11:20:28.391Z,14.60
2024-03-22T11:21:28.365Z,17.60
2024-03-22T11:22:28.364Z,12.50
2024-03-22T11:23:28.357Z,15.10
2024-03-22T11:24:28.381Z,13.90
2024-03-22T11:25:28.341Z,15.20
2024-03-22T11:26:28.338Z,14.80
2024-03-22T11:27:28.326Z,14.60
2024-03-22T11:28:28.407Z,13.00
2024-03-22T11:29:29.333Z,13.80
2024-03-22T11:30:28.312Z,13.70
2024-03-22T11:31:28.296Z,15.70
2024-03-22T11:32:28.286Z,15.70
2024-03-22T11:33:28.335Z,14.10
2024-03-22T11:34:28.278Z,20.20
2024-03-22T11:35:28.269Z,16.40
2024-03-22T11:36:28.259Z,13.40
2024-03-22T11:37:28.250Z,12.00
2024-03-22T11:38:28.270Z,13.90
2024-03-22T11:39:28.225Z,13.00
2024-03-22T11:40:28.243Z,17.20
2024-03-22T11:41:28.209Z,16.30
2024-03-22T11:42:28.230Z,13.50
2024-03-22T11:43:28.221Z,12.80
2024-03-22T11:44:28.197Z,12.60
2024-03-22T11:45:28.182Z,12.00
2024-03-22T11:46:28.182Z,13.80
2024-03-22T11:47:28.190Z,13.90
2024-03-22T11:48:28.159Z,13.70
2024-03-22T11:49:28.162Z,13.70
2024-03-22T11:50:28.153Z,12.20
2024-03-22T11:51:28.142Z,14.00
2024-03-22T11:52:28.166Z,15.90
2024-03-22T11:53:28.118Z,25.60
2024-03-22T11:54:28.130Z,18.00
2024-03-22T11:55:28.109Z,15.40
2024-03-22T11:56:28.137Z,10.90
2024-03-22T11:57:28.118Z,12.90
2024-03-22T11:58:28.081Z,12.00
2024-03-22T11:59:28.073Z,11.30
2024-03-22T12:00:44.639Z,12.50
2024-03-22T12:02:29.047Z,12.50
2024-03-22T12:03:28.050Z,12.10
2024-03-22T12:04:28.041Z,11.90
2024-03-22T12:05:28.056Z,11.30
2024-03-22T12:06:28.057Z,10.50
2024-03-22T12:07:28.031Z,12.20
2024-03-22T12:08:28.017Z,13.90
2024-03-22T12:09:28.003Z,13.30
2024-03-22T12:10:27.987Z,13.90
2024-03-22T12:11:28.006Z,11.80
2024-03-22T12:12:27.994Z,13.60
2024-03-22T12:13:28.977Z,12.40
2024-03-22T12:14:29.938Z,13.10
2024-03-22T12:15:29.007Z,12.20
2024-03-22T12:16:27.971Z,11.40
2024-03-22T12:17:27.986Z,12.80
2024-03-22T12:18:27.920Z,11.70
2024-03-22T12:19:28.923Z,13.80
2024-03-22T12:20:27.965Z,13.90
2024-03-22T12:21:27.906Z,12.60
2024-03-22T12:22:27.898Z,13.80
2024-03-22T12:23:27.920Z,9.80
2024-03-22T12:24:27.892Z,13.30
2024-03-22T12:25:27.911Z,12.50
2024-03-22T12:26:27.868Z,10.00
2024-03-22T12:27:28.802Z,11.30
2024-03-22T12:28:27.867Z,13.70
2024-03-22T12:29:27.882Z,10.70
2024-03-22T12:30:27.876Z,12.40
2024-03-22T12:31:27.836Z,15.10
2024-03-22T12:32:27.823Z,17.70
2024-03-22T12:33:27.823Z,14.20
2024-03-22T12:34:27.833Z,12.00
2024-03-22T12:35:27.799Z,10.20
2024-03-22T12:36:27.795Z,11.10
2024-03-22T12:37:27.810Z,10.30
2024-03-22T12:38:27.774Z,11.70
2024-03-22T12:39:27.793Z,12.50
2024-03-22T12:40:27.766Z,11.30
2024-03-22T12:41:27.760Z,11.20
2024-03-22T12:42:27.750Z,12.20
2024-03-22T12:43:27.773Z,10.70
2024-03-22T12:44:27.757Z,10.40
2024-03-22T12:45:27.728Z,12.20
2024-03-22T12:46:27.721Z,11.30
2024-03-22T12:47:27.704Z,11.90
2024-03-22T12:48:27.725Z,12.40
2024-03-22T12:49:27.713Z,14.40
2024-03-22T12:50:27.697Z,11.60
2024-03-22T12:51:27.691Z,13.30
2024-03-22T12:52:27.666Z,13.00
2024-03-22T12:53:27.694Z,12.40
2024-03-22T12:54:27.652Z,13.20
2024-03-22T12:55:27.656Z,15.00